createdAt,value
2017-07-09T00:00:49.540Z,0
2017-07-09T00:02:02.163Z,0
2017-07-09T00:03:14.505Z,0
2017-07-09T00:04:27.031Z,0
2017-07-09T00:05:39.367Z,0
2017-07-09T00:06:51.592Z,0
2017-07-09T00:08:04.180Z,0
2017-07-09T00:09:15.811Z,0
2017-07-09T00:10:28.078Z,0
2017-07-09T00:11:40.367Z,0
2017-07-09T00:12:52.963Z,0
2017-07-09T00:14:05.479Z,0
2017-07-09T00:15:18.105Z,0
2017-07-09T00:16:30.026Z,0
2017-07-09T00:17:42.280Z,0
2017-07-09T00:18:54.232Z,0
2017-07-09T00:20:06.533Z,0
2017-07-09T00:21:18.849Z,0
2017-07-09T00:22:30.556Z,0
2017-07-09T00:23:42.859Z,0
2017-07-09T00:24:55.055Z,0
2017-07-09T00:26:07.342Z,0
2017-07-09T00:27:19.602Z,0
2017-07-09T00:28:32.142Z,0
2017-07-09T00:29:44.750Z,0
2017-07-09T00:30:56.741Z,0
2017-07-09T00:32:09.034Z,0
2017-07-09T00:33:21.303Z,0
2017-07-09T00:34:33.921Z,0
2017-07-09T00:35:46.194Z,0
2017-07-09T00:36:58.782Z,0
2017-07-09T00:38:10.428Z,0
2017-07-09T00:39:23.049Z,0
2017-07-09T00:40:35.338Z,0
2017-07-09T00:41:47.602Z,0
2017-07-09T00:42:59.536Z,0
2017-07-09T00:44:11.775Z,0
2017-07-09T00:45:23.797Z,0
2017-07-09T00:46:36.061Z,0
2017-07-09T00:47:48.620Z,0
2017-07-09T00:49:01.202Z,0
2017-07-09T00:50:13.444Z,0
2017-07-09T00:51:25.718Z,0
2017-07-09T00:52:37.973Z,0
2017-07-09T00:53:49.917Z,0
2017-07-09T00:55:02.202Z,0
2017-07-09T00:56:14.441Z,0
2017-07-09T00:57:26.693Z,0
2017-07-09T00:58:39.269Z,0
2017-07-09T00:59:51.193Z,0
2017-07-09T01:01:03.757Z,0
2017-07-09T01:02:16.354Z,0
2017-07-09T01:03:29.005Z,0
2017-07-09T01:04:41.882Z,0
2017-07-09T01:05:54.441Z,0
2017-07-09T01:07:06.437Z,0
2017-07-09T01:08:18.383Z,0
2017-07-09T01:09:30.379Z,0
2017-07-09T01:10:42.937Z,0
2017-07-09T01:11:55.552Z,0
2017-07-09T01:13:07.774Z,0
2017-07-09T01:14:20.344Z,0
2017-07-09T01:15:32.976Z,0
2017-07-09T01:16:45.622Z,0
2017-07-09T01:17:58.211Z,0
2017-07-09T01:19:10.203Z,0
2017-07-09T01:20:22.417Z,0
2017-07-09T01:21:35.038Z,0
2017-07-09T01:22:47.282Z,0
2017-07-09T01:23:59.211Z,0
2017-07-09T01:25:11.482Z,0
2017-07-09T01:26:24.058Z,0
2017-07-09T01:27:36.011Z,0
2017-07-09T01:28:48.317Z,0
2017-07-09T01:30:00.902Z,0
2017-07-09T01:31:13.470Z,0
2017-07-09T01:32:25.762Z,0
2017-07-09T01:33:38.426Z,0
2017-07-09T01:34:51.055Z,0
2017-07-09T01:36:03.667Z,0
2017-07-09T01:37:15.910Z,0
2017-07-09T01:38:27.906Z,0
2017-07-09T01:39:39.852Z,0
2017-07-09T01:40:52.076Z,0
2017-07-09T01:42:04.895Z,0
2017-07-09T01:43:17.477Z,0
2017-07-09T01:44:30.060Z,0
2017-07-09T01:45:42.307Z,0
2017-07-09T01:46:54.552Z,0
2017-07-09T01:48:06.548Z,0
2017-07-09T01:49:18.887Z,0
2017-07-09T01:50:31.499Z,0
2017-07-09T01:51:44.111Z,0
2017-07-09T01:52:56.711Z,0
2017-07-09T01:54:08.653Z,0
2017-07-09T01:55:21.224Z,0
2017-07-09T01:56:33.444Z,0
2017-07-09T01:57:45.716Z,0
2017-07-09T01:58:58.018Z,0
2017-07-09T02:00:09.989Z,0
2017-07-09T02:01:22.607Z,0
2017-07-09T02:02:34.886Z,0
2017-07-09T02:03:47.120Z,0
2017-07-09T02:04:59.367Z,0
2017-07-09T02:06:11.591Z,4
2017-07-09T02:07:23.851Z,4
2017-07-09T02:08:36.404Z,4
2017-07-09T02:09:49.041Z,0
2017-07-09T02:11:01.314Z,4
2017-07-09T02:12:12.944Z,4
2017-07-09T02:13:25.213Z,4
2017-07-09T02:14:37.815Z,4
2017-07-09T02:15:50.070Z,8
2017-07-09T02:17:02.356Z,4
2017-07-09T02:18:14.989Z,8
2017-07-09T02:19:27.547Z,8
2017-07-09T02:20:39.170Z,8
2017-07-09T02:21:51.459Z,8
2017-07-09T02:23:03.358Z,12
2017-07-09T02:24:14.964Z,12
2017-07-09T02:25:27.256Z,16
2017-07-09T02:26:39.560Z,16
2017-07-09T02:27:52.145Z,20
2017-07-09T02:29:04.721Z,24
2017-07-09T02:30:16.662Z,28
2017-07-09T02:31:29.268Z,28
2017-07-09T02:32:41.513Z,36
2017-07-09T02:33:53.800Z,40
2017-07-09T02:35:06.371Z,44
2017-07-09T02:36:18.913Z,56
2017-07-09T02:37:30.832Z,60
2017-07-09T02:38:43.364Z,72
2017-07-09T02:39:55.648Z,76
2017-07-09T02:41:07.986Z,88
2017-07-09T02:42:20.250Z,100
2017-07-09T02:43:32.561Z,112
2017-07-09T02:44:44.804Z,124
2017-07-09T02:45:57.360Z,136
2017-07-09T02:47:09.005Z,152
2017-07-09T02:48:21.585Z,172
2017-07-09T02:49:33.877Z,184
2017-07-09T02:50:46.504Z,204
2017-07-09T02:51:59.097Z,232
2017-07-09T02:53:11.695Z,256
2017-07-09T02:54:24.276Z,284
2017-07-09T02:55:36.552Z,300
2017-07-09T02:56:49.208Z,312
2017-07-09T02:58:01.518Z,332
2017-07-09T02:59:13.790Z,364
2017-07-09T03:00:26.329Z,396
2017-07-09T03:01:38.889Z,424
2017-07-09T03:02:51.523Z,452
2017-07-09T03:04:03.441Z,488
2017-07-09T03:05:15.111Z,524
2017-07-09T03:06:27.438Z,568
2017-07-09T03:07:39.654Z,612
2017-07-09T03:08:52.257Z,652
2017-07-09T03:10:04.503Z,688
2017-07-09T03:11:16.810Z,732
2017-07-09T03:12:29.399Z,776
2017-07-09T03:13:41.994Z,820
2017-07-09T03:14:54.818Z,872
2017-07-09T03:16:07.079Z,928
2017-07-09T03:17:19.639Z,980
2017-07-09T03:18:31.307Z,1028
2017-07-09T03:19:43.663Z,1072
2017-07-09T03:20:56.245Z,1124
2017-07-09T03:22:08.237Z,1176
2017-07-09T03:23:19.893Z,1236
2017-07-09T03:24:31.590Z,1300
2017-07-09T03:25:44.147Z,1368
2017-07-09T03:26:56.738Z,1440
2017-07-09T03:28:08.970Z,1512
2017-07-09T03:29:21.631Z,1584
2017-07-09T03:30:34.176Z,1660
2017-07-09T03:31:46.079Z,1748
2017-07-09T03:32:58.661Z,1832
2017-07-09T03:34:10.618Z,1920
2017-07-09T03:35:22.812Z,2004
2017-07-09T03:36:35.066Z,2080
2017-07-09T03:37:47.684Z,2152
2017-07-09T03:39:00.298Z,2228
2017-07-09T03:40:12.575Z,2300
2017-07-09T03:41:24.790Z,2368
2017-07-09T03:42:37.310Z,2428
2017-07-09T03:43:49.643Z,2492
2017-07-09T03:45:01.651Z,2572
2017-07-09T03:46:13.935Z,2664
2017-07-09T03:47:26.195Z,2768
2017-07-09T03:48:38.814Z,2884
2017-07-09T03:49:51.064Z,2980
2017-07-09T03:51:03.589Z,3040
2017-07-09T03:52:16.428Z,3112
2017-07-09T03:53:28.649Z,3204
2017-07-09T03:54:40.875Z,3308
2017-07-09T03:55:52.816Z,3384
2017-07-09T03:57:05.137Z,3476
2017-07-09T03:58:17.384Z,3572
2017-07-09T03:59:29.319Z,3664
2017-07-09T04:00:41.600Z,3744
2017-07-09T04:01:53.846Z,3844
2017-07-09T04:03:05.828Z,3952
2017-07-09T04:04:18.482Z,4072
2017-07-09T04:05:30.766Z,4184
2017-07-09T04:06:43.038Z,4288
2017-07-09T04:07:55.626Z,4388
2017-07-09T04:09:06.971Z,4492
2017-07-09T04:10:19.219Z,4604
2017-07-09T04:11:31.872Z,4716
2017-07-09T04:12:44.446Z,4808
2017-07-09T04:13:57.064Z,4868
2017-07-09T04:15:09.663Z,4912
2017-07-09T04:16:22.259Z,4960
2017-07-09T04:17:34.170Z,5040
2017-07-09T04:18:46.144Z,5184
2017-07-09T04:19:58.696Z,5344
2017-07-09T04:21:11.338Z,5480
2017-07-09T04:22:23.576Z,5624
2017-07-09T04:23:35.490Z,5760
2017-07-09T04:24:47.430Z,5912
2017-07-09T04:25:59.739Z,6096
2017-07-09T04:27:12.052Z,6248
2017-07-09T04:28:24.319Z,6392
2017-07-09T04:29:36.960Z,6556
2017-07-09T04:30:49.224Z,6688
2017-07-09T04:32:01.794Z,6780
2017-07-09T04:33:14.365Z,6856
2017-07-09T04:34:26.967Z,6888
2017-07-09T04:35:39.531Z,6872
2017-07-09T04:36:51.810Z,6844
2017-07-09T04:38:04.132Z,6852
2017-07-09T04:39:16.757Z,6828
2017-07-09T04:40:29.350Z,6876
2017-07-09T04:41:40.976Z,7028
2017-07-09T04:42:53.551Z,7184
2017-07-09T04:44:05.810Z,7300
2017-07-09T04:45:17.787Z,7396
2017-07-09T04:46:30.089Z,7516
2017-07-09T04:47:42.648Z,7688
2017-07-09T04:48:55.251Z,7856
2017-07-09T04:50:07.896Z,7992
2017-07-09T04:51:20.221Z,8440
2017-07-09T04:52:32.782Z,9264
2017-07-09T04:53:45.126Z,9632
2017-07-09T04:54:57.728Z,9340
2017-07-09T04:56:10.004Z,8612
2017-07-09T04:57:22.277Z,8112
2017-07-09T04:58:34.261Z,7940
2017-07-09T04:59:46.851Z,7792
2017-07-09T05:00:59.421Z,7676
2017-07-09T05:02:11.728Z,7668
2017-07-09T05:03:24.239Z,7764
2017-07-09T05:04:36.809Z,7868
2017-07-09T05:05:49.381Z,7900
2017-07-09T05:07:01.676Z,7880
2017-07-09T05:08:14.234Z,7908
2017-07-09T05:09:26.496Z,8048
2017-07-09T05:10:39.114Z,8188
2017-07-09T05:11:51.696Z,8292
2017-07-09T05:13:04.304Z,8356
2017-07-09T05:14:16.601Z,8548
2017-07-09T05:15:28.847Z,8892
2017-07-09T05:16:41.418Z,8944
2017-07-09T05:17:53.951Z,8888
2017-07-09T05:19:06.610Z,8892
2017-07-09T05:20:19.235Z,9216
2017-07-09T05:21:31.477Z,10604
2017-07-09T05:22:43.775Z,10400
2017-07-09T05:23:56.071Z,10508
2017-07-09T05:25:08.093Z,11732
2017-07-09T05:26:20.711Z,14132
2017-07-09T05:27:32.956Z,15412
2017-07-09T05:28:45.189Z,15128
2017-07-09T05:29:58.123Z,20768
2017-07-09T05:31:10.430Z,30368
2017-07-09T05:32:23.058Z,34048
2017-07-09T05:33:35.566Z,28672
2017-07-09T05:34:47.807Z,21280
2017-07-09T05:36:00.377Z,17920
2017-07-09T05:37:12.624Z,15296
2017-07-09T05:38:24.871Z,15520
2017-07-09T05:39:36.822Z,13504
2017-07-09T05:40:49.386Z,13136
2017-07-09T05:42:01.608Z,12012
2017-07-09T05:43:14.212Z,11652
2017-07-09T05:44:26.776Z,11944
2017-07-09T05:45:39.425Z,11224
2017-07-09T05:46:51.965Z,11392
2017-07-09T05:48:03.943Z,11700
2017-07-09T05:49:16.537Z,12404
2017-07-09T05:50:28.835Z,12212
2017-07-09T05:51:41.360Z,12360
2017-07-09T05:52:53.632Z,12712
2017-07-09T05:54:05.666Z,12620
2017-07-09T05:55:17.878Z,13144
2017-07-09T05:56:30.208Z,13424
2017-07-09T05:57:42.779Z,14016
2017-07-09T05:58:55.350Z,13956
2017-07-09T06:00:07.602Z,13520
2017-07-09T06:01:19.880Z,13984
2017-07-09T06:02:32.399Z,14344
2017-07-09T06:03:45.046Z,13924
2017-07-09T06:04:57.341Z,14012
2017-07-09T06:06:09.342Z,14256
2017-07-09T06:07:21.896Z,14080
2017-07-09T06:08:34.199Z,14052
2017-07-09T06:09:46.817Z,13924
2017-07-09T06:10:59.410Z,14312
2017-07-09T06:12:11.672Z,15032
2017-07-09T06:13:23.951Z,16164
2017-07-09T06:14:36.233Z,16312
2017-07-09T06:15:48.524Z,17828
2017-07-09T06:17:00.842Z,19360
2017-07-09T06:18:13.111Z,18592
2017-07-09T06:19:25.739Z,21152
2017-07-09T06:20:37.732Z,25472
2017-07-09T06:21:50.390Z,24992
2017-07-09T06:23:02.055Z,23936
2017-07-09T06:24:13.713Z,20864
2017-07-09T06:25:26.010Z,22656
2017-07-09T06:26:37.968Z,37408
2017-07-09T06:27:49.952Z,47392
2017-07-09T06:29:02.523Z,49888
2017-07-09T06:30:15.075Z,41248
2017-07-09T06:31:27.689Z,27584
2017-07-09T06:32:39.642Z,24320
2017-07-09T06:33:52.254Z,25152
2017-07-09T06:35:04.245Z,22336
2017-07-09T06:36:16.528Z,22304
2017-07-09T06:37:29.056Z,21664
2017-07-09T06:38:41.015Z,23136
2017-07-09T06:39:53.565Z,29056
2017-07-09T06:41:05.911Z,31936
2017-07-09T06:42:18.564Z,40256
2017-07-09T06:43:30.835Z,47904
2017-07-09T06:44:42.826Z,49760
2017-07-09T06:45:55.352Z,51296
2017-07-09T06:47:07.098Z,56416
2017-07-09T06:48:19.418Z,46400
2017-07-09T06:49:32.009Z,30336
2017-07-09T06:50:44.250Z,29408
2017-07-09T06:51:56.513Z,25408
2017-07-09T06:53:08.741Z,25408
2017-07-09T06:54:20.993Z,23168
2017-07-09T06:55:33.601Z,21568
2017-07-09T06:56:45.910Z,21664
2017-07-09T06:57:58.577Z,21216
2017-07-09T06:59:11.217Z,24416
2017-07-09T07:00:23.823Z,16780
2017-07-09T07:01:36.086Z,18336
2017-07-09T07:02:48.696Z,49152
2017-07-09T07:04:01.279Z,48480
2017-07-09T07:05:13.598Z,48736
2017-07-09T07:06:25.846Z,47296
2017-07-09T07:07:37.191Z,48576
2017-07-09T07:08:48.898Z,49216
2017-07-09T07:10:01.144Z,53344
2017-07-09T07:11:13.791Z,52480
2017-07-09T07:12:25.754Z,50624
2017-07-09T07:13:38.078Z,49632
2017-07-09T07:14:50.317Z,48032
2017-07-09T07:16:02.568Z,49952
2017-07-09T07:17:14.208Z,53088
2017-07-09T07:18:26.822Z,58848
2017-07-09T07:19:39.469Z,64608
2017-07-09T07:20:51.734Z,47200
2017-07-09T07:22:03.733Z,30848
2017-07-09T07:23:15.094Z,25696
2017-07-09T07:24:26.760Z,21856
2017-07-09T07:25:38.699Z,21952
2017-07-09T07:26:51.356Z,40864
2017-07-09T07:28:03.657Z,52448
2017-07-09T07:29:15.695Z,51936
2017-07-09T07:30:28.256Z,33920
2017-07-09T07:31:39.916Z,57536
2017-07-09T07:32:52.520Z,56192
2017-07-09T07:34:04.858Z,52992
2017-07-09T07:35:16.841Z,55360
2017-07-09T07:36:29.095Z,53056
2017-07-09T07:37:41.344Z,57760
2017-07-09T07:38:53.286Z,60608
2017-07-09T07:40:06.107Z,61344
2017-07-09T07:41:18.413Z,63456
2017-07-09T07:42:29.780Z,57472
2017-07-09T07:43:42.119Z,61344
2017-07-09T07:44:54.692Z,40544
2017-07-09T07:46:06.971Z,46240
2017-07-09T07:47:19.284Z,34784
2017-07-09T07:48:31.221Z,31040
2017-07-09T07:49:43.849Z,27840
2017-07-09T07:50:56.414Z,27424
2017-07-09T07:52:08.997Z,28224
2017-07-09T07:53:21.591Z,29568
2017-07-09T07:54:33.583Z,53536
2017-07-09T07:55:46.202Z,42208
2017-07-09T07:56:58.449Z,39712
2017-07-09T07:58:11.032Z,39232
2017-07-09T07:59:23.084Z,39776
2017-07-09T08:00:35.399Z,34560
2017-07-09T08:01:47.690Z,32160
2017-07-09T08:02:59.605Z,33440
2017-07-09T08:04:11.887Z,33664
2017-07-09T08:05:24.473Z,32992
2017-07-09T08:06:36.766Z,32384
2017-07-09T08:07:48.474Z,28800
2017-07-09T08:09:01.037Z,25536
2017-07-09T08:10:13.305Z,21824
2017-07-09T08:11:24.974Z,18592
2017-07-09T08:12:37.497Z,16496
2017-07-09T08:13:50.148Z,15484
2017-07-09T08:15:02.528Z,14840
2017-07-09T08:16:14.818Z,14460
2017-07-09T08:17:26.755Z,14736
2017-07-09T08:18:39.350Z,15312
2017-07-09T08:19:51.728Z,15732
2017-07-09T08:21:03.993Z,15768
2017-07-09T08:22:15.970Z,14788
2017-07-09T08:23:28.538Z,13660
2017-07-09T08:24:41.086Z,13288
2017-07-09T08:25:53.647Z,12872
2017-07-09T08:27:06.202Z,12260
2017-07-09T08:28:18.469Z,11436
2017-07-09T08:29:30.691Z,10876
2017-07-09T08:30:42.636Z,11016
2017-07-09T08:31:55.235Z,12072
2017-07-09T08:33:07.258Z,13344
2017-07-09T08:34:19.207Z,13988
2017-07-09T08:35:31.787Z,13340
2017-07-09T08:36:44.395Z,12472
2017-07-09T08:37:57.046Z,12500
2017-07-09T08:39:09.308Z,13380
2017-07-09T08:40:21.886Z,15036
2017-07-09T08:41:34.436Z,16964
2017-07-09T08:42:46.726Z,18656
2017-07-09T08:43:59.341Z,19712
2017-07-09T08:45:12.144Z,20480
2017-07-09T08:46:24.439Z,21376
2017-07-09T08:47:36.709Z,21760
2017-07-09T08:48:48.927Z,21024
2017-07-09T08:50:01.481Z,19104
2017-07-09T08:51:12.783Z,16488
2017-07-09T08:52:25.063Z,14100
2017-07-09T08:53:37.640Z,12796
2017-07-09T08:54:50.166Z,12460
2017-07-09T08:56:02.780Z,12636
2017-07-09T08:57:15.102Z,13108
2017-07-09T08:58:27.378Z,13464
2017-07-09T08:59:39.638Z,13632
2017-07-09T09:00:51.645Z,13804
2017-07-09T09:02:04.183Z,13892
2017-07-09T09:03:16.426Z,13636
2017-07-09T09:04:28.376Z,13656
2017-07-09T09:05:40.604Z,13800
2017-07-09T09:06:53.167Z,14300
2017-07-09T09:08:05.411Z,15080
2017-07-09T09:09:17.705Z,16064
2017-07-09T09:10:29.994Z,17252
2017-07-09T09:11:42.622Z,18528
2017-07-09T09:12:54.923Z,19136
2017-07-09T09:14:06.887Z,19040
2017-07-09T09:15:19.487Z,19040
2017-07-09T09:16:32.032Z,19712
2017-07-09T09:17:44.644Z,20928
2017-07-09T09:18:57.303Z,21376
2017-07-09T09:20:09.551Z,20896
2017-07-09T09:21:22.142Z,20320
2017-07-09T09:22:33.553Z,20416
2017-07-09T09:23:45.156Z,21216
2017-07-09T09:24:57.506Z,22368
2017-07-09T09:26:09.499Z,23936
2017-07-09T09:27:22.038Z,24768
2017-07-09T09:28:34.293Z,25152
2017-07-09T09:29:46.898Z,26432
2017-07-09T09:30:59.468Z,28000
2017-07-09T09:32:11.784Z,28704
2017-07-09T09:33:24.411Z,28000
2017-07-09T09:34:36.712Z,25824
2017-07-09T09:35:49.266Z,23712
2017-07-09T09:37:01.847Z,22592
2017-07-09T09:38:14.457Z,21888
2017-07-09T09:39:26.977Z,21696
2017-07-09T09:40:38.935Z,21600
2017-07-09T09:41:51.197Z,21152
2017-07-09T09:43:03.777Z,20512
2017-07-09T09:44:15.750Z,20576
2017-07-09T09:45:28.369Z,20352
2017-07-09T09:46:40.330Z,19776
2017-07-09T09:47:52.317Z,19776
2017-07-09T09:49:04.548Z,20192
2017-07-09T09:50:15.917Z,20896
2017-07-09T09:51:28.415Z,21376
2017-07-09T09:52:40.420Z,22176
2017-07-09T09:53:52.380Z,23680
2017-07-09T09:55:04.618Z,26016
2017-07-09T09:56:16.621Z,27680
2017-07-09T09:57:28.874Z,29920
2017-07-09T09:58:41.478Z,32640
2017-07-09T09:59:53.490Z,35168
2017-07-09T10:01:06.072Z,36000
2017-07-09T10:02:18.075Z,35936
2017-07-09T10:03:30.347Z,35520
2017-07-09T10:04:42.893Z,36096
2017-07-09T10:05:54.863Z,36928
2017-07-09T10:07:07.171Z,37120
2017-07-09T10:08:19.567Z,37792
2017-07-09T10:09:31.813Z,36192
2017-07-09T10:10:43.797Z,35840
2017-07-09T10:11:56.395Z,35424
2017-07-09T10:13:08.639Z,35040
2017-07-09T10:14:20.889Z,35072
2017-07-09T10:15:32.511Z,35808
2017-07-09T10:16:45.131Z,37888
2017-07-09T10:17:57.774Z,40256
2017-07-09T10:19:09.457Z,45728
2017-07-09T10:20:22.015Z,40704
2017-07-09T10:21:34.277Z,39872
2017-07-09T10:22:46.242Z,38848
2017-07-09T10:23:57.904Z,39200
2017-07-09T10:25:10.166Z,37440
2017-07-09T10:26:22.436Z,38016
2017-07-09T10:27:34.403Z,39808
2017-07-09T10:28:46.729Z,41920
2017-07-09T10:29:59.294Z,39488
2017-07-09T10:31:10.660Z,36416
2017-07-09T10:32:23.298Z,34592
2017-07-09T10:33:35.526Z,33312
2017-07-09T10:34:48.116Z,33504
2017-07-09T10:36:00.112Z,35328
2017-07-09T10:37:12.109Z,35360
2017-07-09T10:38:24.721Z,35744
2017-07-09T10:39:36.986Z,34304
2017-07-09T10:40:49.625Z,33600
2017-07-09T10:42:02.192Z,33024
2017-07-09T10:43:14.471Z,32480
2017-07-09T10:44:26.140Z,32288
2017-07-09T10:45:38.108Z,32672
2017-07-09T10:46:50.351Z,33728
2017-07-09T10:48:02.974Z,34144
2017-07-09T10:49:15.604Z,33792
2017-07-09T10:50:27.866Z,35744
2017-07-09T10:51:40.452Z,33056
2017-07-09T10:52:52.105Z,32544
2017-07-09T10:54:03.436Z,31616
2017-07-09T10:55:14.798Z,30304
2017-07-09T10:56:27.046Z,29120
2017-07-09T10:57:39.340Z,28352
2017-07-09T10:58:51.921Z,28160
2017-07-09T11:00:03.937Z,28544
2017-07-09T11:01:15.929Z,29184
2017-07-09T11:02:27.890Z,30240
2017-07-09T11:03:40.489Z,33696
2017-07-09T11:04:53.043Z,37696
2017-07-09T11:06:05.276Z,42144
2017-07-09T11:07:17.585Z,44992
2017-07-09T11:08:29.895Z,52160
2017-07-09T11:09:42.174Z,62848
2017-07-09T11:10:54.856Z,51648
2017-07-09T11:12:07.133Z,52608
2017-07-09T11:13:19.485Z,51776
2017-07-09T11:14:31.434Z,70912
2017-07-09T11:15:44.004Z,63616
2017-07-09T11:16:56.236Z,63776
2017-07-09T11:18:07.876Z,97856
2017-07-09T11:19:20.178Z,69408
2017-07-09T11:20:31.874Z,49088
2017-07-09T11:21:44.538Z,69216
2017-07-09T11:22:57.366Z,59776
2017-07-09T11:24:09.306Z,58368
2017-07-09T11:25:21.614Z,52992
2017-07-09T11:26:34.166Z,58400
2017-07-09T11:27:46.749Z,66080
2017-07-09T11:28:59.309Z,85632
2017-07-09T11:30:11.560Z,90272
2017-07-09T11:31:23.532Z,67616
2017-07-09T11:32:36.148Z,85920
2017-07-09T11:33:48.735Z,81792
2017-07-09T11:35:00.974Z,72192
2017-07-09T11:36:13.002Z,74016
2017-07-09T11:37:25.622Z,77600
2017-07-09T11:38:37.883Z,77088
2017-07-09T11:39:49.565Z,76960
2017-07-09T11:41:01.860Z,64768
2017-07-09T11:42:14.169Z,67168
2017-07-09T11:43:26.409Z,75520
2017-07-09T11:44:38.980Z,75520
2017-07-09T11:45:50.681Z,76960
2017-07-09T11:47:03.284Z,67808
2017-07-09T11:48:15.323Z,48768
2017-07-09T11:49:27.916Z,64864
2017-07-09T11:50:40.172Z,58848
2017-07-09T11:51:52.798Z,55872
2017-07-09T11:53:04.451Z,48192
2017-07-09T11:54:15.802Z,81568
2017-07-09T11:55:27.771Z,48832
2017-07-09T11:56:40.096Z,71136
2017-07-09T11:57:52.367Z,62080
2017-07-09T11:59:04.724Z,60640
2017-07-09T12:00:17.307Z,64672
2017-07-09T12:01:28.974Z,70176
2017-07-09T12:02:41.322Z,69696
2017-07-09T12:03:53.879Z,68864
2017-07-09T12:05:06.211Z,71392
2017-07-09T12:06:18.743Z,67680
2017-07-09T12:07:31.084Z,68416
2017-07-09T12:08:43.380Z,67424
2017-07-09T12:09:55.962Z,66848
2017-07-09T12:11:07.972Z,66176
2017-07-09T12:12:19.938Z,65792
2017-07-09T12:13:32.225Z,63712
2017-07-09T12:14:44.282Z,63072
2017-07-09T12:15:56.554Z,64448
2017-07-09T12:17:08.849Z,64128
2017-07-09T12:18:21.158Z,64448
2017-07-09T12:19:33.467Z,63232
2017-07-09T12:20:45.445Z,62144
2017-07-09T12:21:58.112Z,62016
2017-07-09T12:23:09.486Z,63904
2017-07-09T12:24:21.519Z,63616
2017-07-09T12:25:34.174Z,64800
2017-07-09T12:26:46.530Z,65344
2017-07-09T12:27:58.528Z,65280
2017-07-09T12:29:10.241Z,64640
2017-07-09T12:30:22.555Z,64800
2017-07-09T12:31:34.846Z,62336
2017-07-09T12:32:47.346Z,61184
2017-07-09T12:33:59.914Z,62784
2017-07-09T12:35:12.237Z,62272
2017-07-09T12:36:24.555Z,60896
2017-07-09T12:37:36.551Z,60704
2017-07-09T12:38:49.149Z,59840
2017-07-09T12:40:00.800Z,58464
2017-07-09T12:41:13.145Z,63360
2017-07-09T12:42:25.796Z,64672
2017-07-09T12:43:37.812Z,63936
2017-07-09T12:44:50.425Z,66304
2017-07-09T12:46:02.716Z,65984
2017-07-09T12:47:15.336Z,62816
2017-07-09T12:48:28.001Z,60672
2017-07-09T12:49:40.311Z,60416
2017-07-09T12:50:52.560Z,58272
2017-07-09T12:52:04.889Z,57824
2017-07-09T12:53:17.174Z,58432
2017-07-09T12:54:29.469Z,60480
2017-07-09T12:55:42.077Z,60864
2017-07-09T12:56:54.711Z,57792
2017-07-09T12:58:06.382Z,58880
2017-07-09T12:59:18.378Z,60256
2017-07-09T13:00:30.692Z,57184
2017-07-09T13:01:42.956Z,58144
2017-07-09T13:02:55.598Z,57120
2017-07-09T13:04:07.255Z,53504
2017-07-09T13:05:19.936Z,54848
2017-07-09T13:06:32.554Z,56896
2017-07-09T13:07:45.180Z,51488
2017-07-09T13:08:57.710Z,56320
2017-07-09T13:10:09.417Z,56512
2017-07-09T13:11:21.687Z,58144
2017-07-09T13:12:34.001Z,58944
2017-07-09T13:13:46.383Z,59040
2017-07-09T13:14:59.031Z,51552
2017-07-09T13:16:10.096Z,50688
2017-07-09T13:17:22.042Z,53568
2017-07-09T13:18:34.606Z,56224
2017-07-09T13:19:46.890Z,57408
2017-07-09T13:20:59.512Z,59008
2017-07-09T13:22:11.507Z,56960
2017-07-09T13:23:23.459Z,53888
2017-07-09T13:24:35.504Z,47136
2017-07-09T13:25:47.231Z,59712
2017-07-09T13:26:59.191Z,60992
2017-07-09T13:28:11.873Z,57056
2017-07-09T13:29:24.443Z,56640
2017-07-09T13:30:36.456Z,53728
2017-07-09T13:31:49.019Z,47968
2017-07-09T13:33:01.599Z,50816
2017-07-09T13:34:13.861Z,55648
2017-07-09T13:35:26.172Z,54880
2017-07-09T13:36:38.182Z,49856
2017-07-09T13:37:50.460Z,49504
2017-07-09T13:39:02.780Z,54816
2017-07-09T13:40:14.775Z,54176
2017-07-09T13:41:27.061Z,56352
2017-07-09T13:42:39.387Z,57120
2017-07-09T13:43:51.382Z,56192
2017-07-09T13:45:04.059Z,56320
2017-07-09T13:46:16.123Z,56032
2017-07-09T13:47:28.712Z,52608
2017-07-09T13:48:40.374Z,53888
2017-07-09T13:49:52.683Z,52832
2017-07-09T13:51:05.301Z,53632
2017-07-09T13:52:17.317Z,52480
2017-07-09T13:53:29.871Z,52320
2017-07-09T13:54:42.166Z,51872
2017-07-09T13:55:54.718Z,51296
2017-07-09T13:57:07.057Z,50208
2017-07-09T13:58:19.681Z,50144
2017-07-09T13:59:31.624Z,48928
2017-07-09T14:00:43.588Z,50592
2017-07-09T14:01:55.842Z,51264
2017-07-09T14:03:08.430Z,50048
2017-07-09T14:04:20.710Z,47968
2017-07-09T14:05:32.984Z,49248
2017-07-09T14:06:44.637Z,51168
2017-07-09T14:07:57.003Z,50176
2017-07-09T14:09:09.372Z,50272
2017-07-09T14:10:21.038Z,49632
2017-07-09T14:11:33.615Z,48224
2017-07-09T14:12:45.933Z,46016
2017-07-09T14:13:58.254Z,40128
2017-07-09T14:15:10.264Z,38272
2017-07-09T14:16:22.544Z,41120
2017-07-09T14:17:34.149Z,40448
2017-07-09T14:18:46.135Z,39008
2017-07-09T14:19:58.417Z,32928
2017-07-09T14:21:10.102Z,40320
2017-07-09T14:22:21.797Z,37664
2017-07-09T14:23:33.461Z,38624
2017-07-09T14:24:46.014Z,30048
2017-07-09T14:25:58.643Z,40384
2017-07-09T14:27:11.499Z,39936
2017-07-09T14:28:24.153Z,40992
2017-07-09T14:29:36.098Z,39680
2017-07-09T14:30:48.125Z,35424
2017-07-09T14:32:00.118Z,34016
2017-07-09T14:33:12.411Z,32896
2017-07-09T14:34:24.683Z,33216
2017-07-09T14:35:36.958Z,33152
2017-07-09T14:36:49.235Z,33280
2017-07-09T14:38:01.894Z,33664
2017-07-09T14:39:14.181Z,34144
2017-07-09T14:40:26.467Z,33760
2017-07-09T14:41:38.717Z,33248
2017-07-09T14:42:51.253Z,28576
2017-07-09T14:44:03.888Z,26304
2017-07-09T14:45:16.482Z,25216
2017-07-09T14:46:28.739Z,22752
2017-07-09T14:47:40.690Z,15392
2017-07-09T14:48:53.326Z,14688
2017-07-09T14:50:05.253Z,14260
2017-07-09T14:51:17.531Z,14740
2017-07-09T14:52:30.143Z,15448
2017-07-09T14:53:42.090Z,16276
2017-07-09T14:54:54.349Z,18208
2017-07-09T14:56:06.988Z,17824
2017-07-09T14:57:19.296Z,18592
2017-07-09T14:58:31.560Z,19264
2017-07-09T14:59:43.495Z,19296
2017-07-09T15:00:55.215Z,18848
2017-07-09T15:02:07.515Z,17664
2017-07-09T15:03:20.059Z,16384
2017-07-09T15:04:32.682Z,15208
2017-07-09T15:05:44.662Z,15560
2017-07-09T15:06:56.996Z,15956
2017-07-09T15:08:08.003Z,15164
2017-07-09T15:09:20.288Z,13600
2017-07-09T15:10:32.883Z,12172
2017-07-09T15:11:44.533Z,11144
2017-07-09T15:12:57.137Z,10540
2017-07-09T15:14:09.771Z,10224
2017-07-09T15:15:22.024Z,9784
2017-07-09T15:16:34.326Z,9252
2017-07-09T15:17:46.360Z,8824
2017-07-09T15:18:58.616Z,8484
2017-07-09T15:20:10.657Z,7920
2017-07-09T15:21:22.670Z,7476
2017-07-09T15:22:33.996Z,7076
2017-07-09T15:23:45.087Z,8212
2017-07-09T15:24:56.786Z,9024
2017-07-09T15:26:09.092Z,9324
2017-07-09T15:27:21.733Z,9468
2017-07-09T15:28:33.413Z,9384
2017-07-09T15:29:45.718Z,9260
2017-07-09T15:30:58.314Z,9076
2017-07-09T15:32:10.589Z,8848
2017-07-09T15:33:22.856Z,8660
2017-07-09T15:34:35.116Z,8512
2017-07-09T15:35:47.473Z,8392
2017-07-09T15:36:59.445Z,8296
2017-07-09T15:38:11.989Z,8196
2017-07-09T15:39:23.603Z,8056
2017-07-09T15:40:36.209Z,7940
2017-07-09T15:41:48.555Z,7852
2017-07-09T15:43:00.872Z,7680
2017-07-09T15:44:12.519Z,7692
2017-07-09T15:45:24.743Z,7904
2017-07-09T15:46:37.010Z,8028
2017-07-09T15:47:49.584Z,8140
2017-07-09T15:49:02.159Z,8020
2017-07-09T15:50:14.180Z,7744
2017-07-09T15:51:26.461Z,7416
2017-07-09T15:52:38.752Z,7480
2017-07-09T15:53:51.367Z,7160
2017-07-09T15:55:03.022Z,6528
2017-07-09T15:56:15.053Z,6692
2017-07-09T15:57:26.716Z,7372
2017-07-09T15:58:39.319Z,7900